Aviation Digital Data Service (ADDS)

Output produced by METARs form (0155 UTC 24 May 2019)
found at http://www.aviationweather.gov/metar/data/
 
METAR text: EPSC 240130Z 12005KT CAVOK 07/06 Q1015
Conditions at: EPSC (SZCZECIN/GOLENIO, PL) observed 0130 UTC 24 May 2019
Temperature: 7.0°C (45°F)
Dewpoint: 6.0°C (43°F) [RH = 93%]
Pressure (altimeter): 29.97 inches Hg (1015.0 mb)
Winds: from the ESE (120 degrees) at 6 MPH (5 knots; 2.6 m/s)
Visibility: 6 or more miles (10+ km)
Ceiling: ceiling and visibility are OK
Clouds: unknown
Weather: no significant weather observed at this time

METAR text: EPSC 240100Z 12005KT CAVOK 07/06 Q1016
Conditions at: EPSC (SZCZECIN/GOLENIO, PL) observed 0100 UTC 24 May 2019
Temperature: 7.0°C (45°F)
Dewpoint: 6.0°C (43°F) [RH = 93%]
Pressure (altimeter): 30.00 inches Hg (1016.0 mb)
Winds: from the ESE (120 degrees) at 6 MPH (5 knots; 2.6 m/s)
Visibility: 6 or more miles (10+ km)
Ceiling: ceiling and visibility are OK
Clouds: unknown
Weather: no significant weather observed at this time

Forecast for: EPSC (SZCZECIN/GOLENIO, PL)
Text: TAF EPSC 232330Z 2400/2424 VRB02KT CAVOK
Forecast period: 0000 to 0900 UTC 24 May 2019
Forecast type: FROM: standard forecast or significant change
Winds: variable direction winds at 2 MPH (2 knots; 1.0 m/s)
Visibility: 6 or more miles 10+ km)
Ceiling: unknown
Clouds: missing
Weather: NSW  (no significant weather)
Text: BECMG 2409/2412 23010KT
Forecast period: 0900 to 2000 UTC 24 May 2019
Forecast type: BECOMING: Conditions expected to become as follows by 1200 UTC 24 May 2019
Winds: from the SW (230 degrees) at 12 MPH (10 knots; 5.1 m/s)
Visibility: 6 or more miles 10+ km)
Ceiling: unknown
Clouds: missing
Weather: NSW  (no significant weather)
Text: BECMG 2420/2423 30005KT
Forecast period: 2000 UTC 24 May 2019 to 0000 UTC 25 May 2019
Forecast type: BECOMING: Conditions expected to become as follows by 2300 UTC 24 May 2019
Winds: from the WNW (300 degrees) at 6 MPH (5 knots; 2.6 m/s)
Visibility: 6 or more miles 10+ km)
Ceiling: unknown
Clouds: missing
Weather: NSW  (no significant weather)